PWSweather.com
Personal Weather Stations
Station Observations
PICKERING
North Yorkshire, PickeringGB

North YorkshirePickeringGB

Lat: 54.2494, Lon: -0.7725

Elevation: 192

Station Type: Oregon Scientific WMR100

http://www.yorkshirewalker.co.uk/weather/

High Low Average
Temperature 40.5°F4.7°C 36.3°F2.4°C 37.2°F2.9°C
Dew Point 37.4°F3.0°C 32.0°F0.0°C 33.8°F1.0°C
Winds 8.8 mph 14.2 kmh 0.9 mph 1.4 kmh 4.0 mph SE6.4 kmh SE
Wind Gusts 13.0 mph20.9 kmh 2.5 mph4.0 kmh 7.0 mph11.3 kmh
Humidity 86% 84% 85%
Pressure 29.95 in1014.2 mb 29.80 in1009.1 mb -
Precipitation 0.06 in1.5 mm - -
Hour Temp Dew Point Humidity Winds Wind Gusts Pressure Precip Precip Rate Daily Precip Total
12:00 AM 36.7°F2.6°C 32.0°F0.0°C 84% 2.8 mph NNW4.5 kmh NNW 5.4 mph8.7 kmh 29.80 in1009.1 mb 0.00 in0.0 mm 0.00 in0.0 mm 0.00 in0.0 mm
12:05 AM 36.5°F2.5°C 32.0°F0.0°C 84% 2.5 mph NNW4.0 kmh NNW 5.4 mph8.7 kmh 29.80 in1009.1 mb 0.00 in0.0 mm 0.00 in0.0 mm 0.00 in0.0 mm
12:10 AM 36.5°F2.5°C 33.8°F1.0°C 85% 3.1 mph NW5.0 kmh NW 7.2 mph11.6 kmh 29.80 in1009.1 mb 0.00 in0.0 mm 0.00 in0.0 mm 0.00 in0.0 mm
12:15 AM 36.5°F2.5°C 33.8°F1.0°C 85% 3.6 mph NNW5.8 kmh NNW 7.2 mph11.6 kmh 29.80 in1009.1 mb 0.00 in0.0 mm 0.00 in0.0 mm 0.00 in0.0 mm
12:20 AM 36.3°F2.4°C 32.0°F0.0°C 85% 2.4 mph N3.9 kmh N 5.8 mph9.3 kmh 29.80 in1009.1 mb 0.00 in0.0 mm 0.00 in0.0 mm 0.00 in0.0 mm
12:25 AM 36.3°F2.4°C 32.0°F0.0°C 85% 3.4 mph NW5.5 kmh NW 6.5 mph10.5 kmh 29.80 in1009.1 mb 0.00 in0.0 mm 0.00 in0.0 mm 0.00 in0.0 mm
12:30 AM 36.3°F2.4°C 32.0°F0.0°C 85% 4.4 mph N7.1 kmh N 7.2 mph11.6 kmh 29.80 in1009.1 mb 0.00 in0.0 mm 0.00 in0.0 mm 0.00 in0.0 mm
12:35 AM 36.3°F2.4°C 32.0°F0.0°C 85% 3.3 mph N5.3 kmh N 7.2 mph11.6 kmh 29.80 in1009.1 mb 0.00 in0.0 mm 0.00 in0.0 mm 0.00 in0.0 mm
12:40 AM 36.5°F2.5°C 33.8°F1.0°C 85% 2.7 mph N4.3 kmh N 7.2 mph11.6 kmh 29.80 in1009.1 mb 0.00 in0.0 mm 0.00 in0.0 mm 0.00 in0.0 mm
12:45 AM 36.5°F2.5°C 33.8°F1.0°C 85% 2.5 mph N4.0 kmh N 6.0 mph9.7 kmh 29.80 in1009.1 mb 0.00 in0.0 mm 0.00 in0.0 mm 0.00 in0.0 mm
12:50 AM 36.5°F2.5°C 33.8°F1.0°C 85% 2.2 mph NNW3.5 kmh NNW 3.6 mph5.8 kmh 29.80 in1009.1 mb 0.00 in0.0 mm 0.00 in0.0 mm 0.00 in0.0 mm
12:55 AM 36.3°F2.4°C 32.0°F0.0°C 85% 1.7 mph NW2.7 kmh NW 2.9 mph4.7 kmh 29.80 in1009.1 mb 0.00 in0.0 mm 0.00 in0.0 mm 0.00 in0.0 mm
01:00 AM 36.3°F2.4°C 32.0°F0.0°C 85% 1.3 mph NW2.1 kmh NW 2.9 mph4.7 kmh 29.80 in1009.1 mb 0.00 in0.0 mm 0.00 in0.0 mm 0.00 in0.0 mm
01:05 AM 36.3°F2.4°C 32.0°F0.0°C 85% 2.4 mph NW3.9 kmh NW 5.6 mph9.0 kmh 29.80 in1009.1 mb 0.00 in0.0 mm 0.00 in0.0 mm 0.00 in0.0 mm
01:10 AM 36.7°F2.6°C 33.8°F1.0°C 85% 3.6 mph NW5.8 kmh NW 6.0 mph9.7 kmh 29.80 in1009.1 mb 0.00 in0.0 mm 0.00 in0.0 mm 0.00 in0.0 mm
01:15 AM 36.7°F2.6°C 33.8°F1.0°C 85% 2.4 mph NW3.9 kmh NW 6.0 mph9.7 kmh 29.80 in1009.1 mb 0.00 in0.0 mm 0.00 in0.0 mm 0.00 in0.0 mm
01:20 AM 36.7°F2.6°C 33.8°F1.0°C 85% 2.1 mph NW3.4 kmh NW 4.0 mph6.4 kmh 29.80 in1009.1 mb 0.00 in0.0 mm 0.00 in0.0 mm 0.00 in0.0 mm
01:25 AM 36.7°F2.6°C 33.8°F1.0°C 85% 3.1 mph NW5.0 kmh NW 6.0 mph9.7 kmh 29.80 in1009.1 mb 0.00 in0.0 mm 0.00 in0.0 mm 0.00 in0.0 mm
01:30 AM 36.7°F2.6°C 33.8°F1.0°C 85% 3.5 mph N5.6 kmh N 6.0 mph9.7 kmh 29.80 in1009.1 mb 0.00 in0.0 mm 0.00 in0.0 mm 0.00 in0.0 mm
01:35 AM 36.7°F2.6°C 33.8°F1.0°C 85% 3.2 mph N5.1 kmh N 5.4 mph8.7 kmh 29.80 in1009.1 mb 0.00 in0.0 mm 0.00 in0.0 mm 0.00 in0.0 mm
01:40 AM 36.9°F2.7°C 33.8°F1.0°C 85% 3.8 mph N6.1 kmh N 7.6 mph12.2 kmh 29.80 in1009.1 mb 0.00 in0.0 mm 0.00 in0.0 mm 0.00 in0.0 mm
01:45 AM 36.9°F2.7°C 33.8°F1.0°C 85% 3.6 mph N5.8 kmh N 7.6 mph12.2 kmh 29.80 in1009.1 mb 0.00 in0.0 mm 0.00 in0.0 mm 0.00 in0.0 mm
01:50 AM 36.7°F2.6°C 33.8°F1.0°C 85% 2.4 mph NNE3.9 kmh NNE 6.5 mph10.5 kmh 29.80 in1009.1 mb 0.00 in0.0 mm 0.00 in0.0 mm 0.00 in0.0 mm
01:55 AM 36.7°F2.6°C 33.8°F1.0°C 85% 2.4 mph NNE3.9 kmh NNE 5.4 mph8.7 kmh 29.80 in1009.1 mb 0.00 in0.0 mm 0.00 in0.0 mm 0.00 in0.0 mm
02:00 AM 36.7°F2.6°C 33.8°F1.0°C 85% 3.5 mph N5.6 kmh N 6.0 mph9.7 kmh 29.80 in1009.1 mb 0.00 in0.0 mm 0.00 in0.0 mm 0.00 in0.0 mm
02:05 AM 36.7°F2.6°C 33.8°F1.0°C 85% 3.2 mph N5.1 kmh N 6.0 mph9.7 kmh 29.80 in1009.1 mb 0.00 in0.0 mm 0.00 in0.0 mm 0.00 in0.0 mm
02:10 AM 36.9°F2.7°C 33.8°F1.0°C 85% 2.4 mph NW3.9 kmh NW 4.9 mph7.9 kmh 29.80 in1009.1 mb 0.00 in0.0 mm 0.00 in0.0 mm 0.00 in0.0 mm
02:15 AM 36.9°F2.7°C 33.8°F1.0°C 85% 3.0 mph NNW4.8 kmh NNW 4.9 mph7.9 kmh 29.80 in1009.1 mb 0.00 in0.0 mm 0.00 in0.0 mm 0.00 in0.0 mm
02:20 AM 37.0°F2.8°C 33.8°F1.0°C 85% 4.3 mph N6.9 kmh N 10.3 mph16.6 kmh 29.80 in1009.1 mb 0.00 in0.0 mm 0.00 in0.0 mm 0.00 in0.0 mm
02:25 AM 37.0°F2.8°C 33.8°F1.0°C 85% 4.5 mph N7.2 kmh N 10.3 mph16.6 kmh 29.80 in1009.1 mb 0.00 in0.0 mm 0.00 in0.0 mm 0.00 in0.0 mm
02:30 AM 37.0°F2.8°C 33.8°F1.0°C 85% 3.7 mph N6.0 kmh N 5.8 mph9.3 kmh 29.83 in1010.2 mb 0.00 in0.0 mm 0.00 in0.0 mm 0.00 in0.0 mm
02:35 AM 37.0°F2.8°C 33.8°F1.0°C 85% 3.9 mph N6.3 kmh N 5.8 mph9.3 kmh 29.83 in1010.2 mb 0.00 in0.0 mm 0.00 in0.0 mm 0.00 in0.0 mm
02:40 AM 37.0°F2.8°C 33.8°F1.0°C 85% 3.7 mph N6.0 kmh N 5.6 mph9.0 kmh 29.83 in1010.2 mb 0.00 in0.0 mm 0.00 in0.0 mm 0.00 in0.0 mm
02:45 AM 37.0°F2.8°C 33.8°F1.0°C 85% 2.9 mph NNW4.7 kmh NNW 4.9 mph7.9 kmh 29.80 in1009.1 mb 0.00 in0.0 mm 0.00 in0.0 mm 0.00 in0.0 mm
02:50 AM 37.0°F2.8°C 33.8°F1.0°C 85% 2.7 mph NNW4.3 kmh NNW 5.6 mph9.0 kmh 29.80 in1009.1 mb 0.00 in0.0 mm 0.00 in0.0 mm 0.00 in0.0 mm
02:55 AM 37.0°F2.8°C 33.8°F1.0°C 85% 3.7 mph NNW6.0 kmh NNW 7.8 mph12.6 kmh 29.80 in1009.1 mb 0.00 in0.0 mm 0.00 in0.0 mm 0.00 in0.0 mm
03:00 AM 36.9°F2.7°C 33.8°F1.0°C 85% 5.1 mph N8.2 kmh N 7.8 mph12.6 kmh 29.83 in1010.2 mb 0.00 in0.0 mm 0.00 in0.0 mm 0.00 in0.0 mm
03:05 AM 36.9°F2.7°C 33.8°F1.0°C 85% 3.6 mph N5.8 kmh N 7.4 mph11.9 kmh 29.83 in1010.2 mb 0.00 in0.0 mm 0.00 in0.0 mm 0.00 in0.0 mm
03:10 AM 36.9°F2.7°C 33.8°F1.0°C 85% 2.1 mph N3.4 kmh N 6.0 mph9.7 kmh 29.83 in1010.2 mb 0.00 in0.0 mm 0.00 in0.0 mm 0.00 in0.0 mm
03:15 AM 36.9°F2.7°C 33.8°F1.0°C 85% 2.3 mph N3.7 kmh N 4.9 mph7.9 kmh 29.83 in1010.2 mb 0.00 in0.0 mm 0.00 in0.0 mm 0.00 in0.0 mm
03:20 AM 37.0°F2.8°C 33.8°F1.0°C 85% 3.2 mph NNW5.1 kmh NNW 6.0 mph9.7 kmh 29.83 in1010.2 mb 0.00 in0.0 mm 0.00 in0.0 mm 0.00 in0.0 mm
03:25 AM 37.0°F2.8°C 33.8°F1.0°C 85% 3.2 mph NNW5.1 kmh NNW 6.0 mph9.7 kmh 29.83 in1010.2 mb 0.00 in0.0 mm 0.00 in0.0 mm 0.00 in0.0 mm
03:30 AM 37.0°F2.8°C 33.8°F1.0°C 85% 2.3 mph N3.7 kmh N 4.0 mph6.4 kmh 29.83 in1010.2 mb 0.00 in0.0 mm 0.00 in0.0 mm 0.00 in0.0 mm
03:35 AM 36.9°F2.7°C 33.8°F1.0°C 85% 2.6 mph NNE4.2 kmh NNE 5.4 mph8.7 kmh 29.83 in1010.2 mb 0.00 in0.0 mm 0.00 in0.0 mm 0.00 in0.0 mm
03:40 AM 36.7°F2.6°C 33.8°F1.0°C 85% 4.5 mph N7.2 kmh N 9.8 mph15.8 kmh 29.83 in1010.2 mb 0.00 in0.0 mm 0.00 in0.0 mm 0.00 in0.0 mm
03:45 AM 36.7°F2.6°C 33.8°F1.0°C 85% 4.6 mph N7.4 kmh N 9.8 mph15.8 kmh 29.83 in1010.2 mb 0.00 in0.0 mm 0.00 in0.0 mm 0.00 in0.0 mm
03:50 AM 36.5°F2.5°C 33.8°F1.0°C 86% 2.9 mph N4.7 kmh N 6.5 mph10.5 kmh 29.83 in1010.2 mb 0.00 in0.0 mm 0.00 in0.0 mm 0.00 in0.0 mm
03:55 AM 36.5°F2.5°C 33.8°F1.0°C 86% 2.2 mph N3.5 kmh N 3.8 mph6.1 kmh 29.83 in1010.2 mb 0.00 in0.0 mm 0.00 in0.0 mm 0.00 in0.0 mm
04:00 AM 36.5°F2.5°C 33.8°F1.0°C 86% 2.1 mph N3.4 kmh N 4.3 mph6.9 kmh 29.83 in1010.2 mb 0.00 in0.0 mm 0.00 in0.0 mm 0.00 in0.0 mm
04:05 AM 36.5°F2.5°C 33.8°F1.0°C 86% 1.9 mph NNE3.1 kmh NNE 4.3 mph6.9 kmh 29.83 in1010.2 mb 0.00 in0.0 mm 0.00 in0.0 mm 0.00 in0.0 mm
04:10 AM 36.5°F2.5°C 33.8°F1.0°C 86% 0.9 mph NNE1.4 kmh NNE 3.1 mph5.0 kmh 29.83 in1010.2 mb 0.00 in0.0 mm 0.00 in0.0 mm 0.00 in0.0 mm
04:15 AM 36.7°F2.6°C 33.8°F1.0°C 86% 0.9 mph NNW1.4 kmh NNW 2.5 mph4.0 kmh 29.83 in1010.2 mb 0.00 in0.0 mm 0.00 in0.0 mm 0.00 in0.0 mm
04:20 AM 36.7°F2.6°C 33.8°F1.0°C 86% 1.7 mph N2.7 kmh N 4.0 mph6.4 kmh 29.83 in1010.2 mb 0.00 in0.0 mm 0.00 in0.0 mm 0.00 in0.0 mm
04:25 AM 36.7°F2.6°C 33.8°F1.0°C 86% 2.6 mph NNE4.2 kmh NNE 5.8 mph9.3 kmh 29.83 in1010.2 mb 0.00 in0.0 mm 0.00 in0.0 mm 0.00 in0.0 mm
04:30 AM 36.7°F2.6°C 33.8°F1.0°C 86% 3.1 mph N5.0 kmh N 5.8 mph9.3 kmh 29.83 in1010.2 mb 0.00 in0.0 mm 0.00 in0.0 mm 0.00 in0.0 mm
04:35 AM 36.7°F2.6°C 33.8°F1.0°C 86% 2.2 mph NNW3.5 kmh NNW 4.9 mph7.9 kmh 29.83 in1010.2 mb 0.00 in0.0 mm 0.00 in0.0 mm 0.00 in0.0 mm
04:40 AM 36.9°F2.7°C 33.8°F1.0°C 86% 2.2 mph NNW3.5 kmh NNW 4.7 mph7.6 kmh 29.83 in1010.2 mb 0.00 in0.0 mm 0.00 in0.0 mm 0.00 in0.0 mm
04:45 AM 37.0°F2.8°C 33.8°F1.0°C 86% 2.9 mph N4.7 kmh N 5.6 mph9.0 kmh 29.83 in1010.2 mb 0.00 in0.0 mm 0.00 in0.0 mm 0.00 in0.0 mm
04:50 AM 36.9°F2.7°C 33.8°F1.0°C 86% 4.2 mph N6.8 kmh N 8.5 mph13.7 kmh 29.83 in1010.2 mb 0.06 in1.5 mm 0.72 in18.3 mm 0.06 in1.5 mm
04:55 AM 36.7°F2.6°C 33.8°F1.0°C 86% 4.3 mph N6.9 kmh N 8.5 mph13.7 kmh 29.83 in1010.2 mb 0.06 in1.5 mm 0.00 in0.0 mm 0.06 in1.5 mm
05:00 AM 36.7°F2.6°C 33.8°F1.0°C 86% 3.2 mph NNW5.1 kmh NNW 5.6 mph9.0 kmh 29.83 in1010.2 mb 0.06 in1.5 mm 0.00 in0.0 mm 0.06 in1.5 mm
05:05 AM 36.7°F2.6°C 33.8°F1.0°C 86% 2.9 mph N4.7 kmh N 6.5 mph10.5 kmh 29.83 in1010.2 mb 0.06 in1.5 mm 0.00 in0.0 mm 0.06 in1.5 mm
05:10 AM 36.7°F2.6°C 33.8°F1.0°C 86% 2.9 mph N4.7 kmh N 6.5 mph10.5 kmh 29.83 in1010.2 mb 0.06 in1.5 mm 0.00 in0.0 mm 0.06 in1.5 mm
05:15 AM 36.7°F2.6°C 33.8°F1.0°C 86% 3.1 mph N5.0 kmh N 5.8 mph9.3 kmh 29.83 in1010.2 mb 0.06 in1.5 mm 0.00 in0.0 mm 0.06 in1.5 mm
05:20 AM 36.7°F2.6°C 33.8°F1.0°C 86% 3.3 mph N5.3 kmh N 4.9 mph7.9 kmh 29.83 in1010.2 mb 0.06 in1.5 mm 0.00 in0.0 mm 0.06 in1.5 mm
05:25 AM 36.9°F2.7°C 33.8°F1.0°C 86% 4.3 mph N6.9 kmh N 6.3 mph10.1 kmh 29.83 in1010.2 mb 0.06 in1.5 mm 0.00 in0.0 mm 0.06 in1.5 mm
05:30 AM 36.9°F2.7°C 33.8°F1.0°C 86% 5.4 mph N8.7 kmh N 8.1 mph13.0 kmh 29.83 in1010.2 mb 0.06 in1.5 mm 0.00 in0.0 mm 0.06 in1.5 mm
05:35 AM 37.0°F2.8°C 33.8°F1.0°C 86% 5.5 mph N8.9 kmh N 8.1 mph13.0 kmh 29.83 in1010.2 mb 0.06 in1.5 mm 0.00 in0.0 mm 0.06 in1.5 mm
05:40 AM 37.0°F2.8°C 33.8°F1.0°C 86% 5.7 mph N9.2 kmh N 7.2 mph11.6 kmh 29.83 in1010.2 mb 0.06 in1.5 mm 0.00 in0.0 mm 0.06 in1.5 mm
05:45 AM 37.0°F2.8°C 33.8°F1.0°C 86% 5.0 mph N8.0 kmh N 7.2 mph11.6 kmh 29.86 in1011.2 mb 0.06 in1.5 mm 0.00 in0.0 mm 0.06 in1.5 mm
05:50 AM 37.0°F2.8°C 33.8°F1.0°C 86% 4.0 mph N6.4 kmh N 7.8 mph12.6 kmh 29.86 in1011.2 mb 0.00 in0.0 mm 0.00 in0.0 mm 0.06 in1.5 mm
05:55 AM 37.0°F2.8°C 33.8°F1.0°C 86% 4.7 mph NNE7.6 kmh NNE 9.2 mph14.8 kmh 29.86 in1011.2 mb 0.00 in0.0 mm 0.00 in0.0 mm 0.06 in1.5 mm
06:00 AM 37.0°F2.8°C 33.8°F1.0°C 86% 5.9 mph NE9.5 kmh NE 11.2 mph18.0 kmh 29.86 in1011.2 mb 0.00 in0.0 mm 0.00 in0.0 mm 0.06 in1.5 mm
06:05 AM 36.9°F2.7°C 33.8°F1.0°C 86% 5.6 mph N9.0 kmh N 11.2 mph18.0 kmh 29.86 in1011.2 mb 0.00 in0.0 mm 0.00 in0.0 mm 0.06 in1.5 mm
06:10 AM 36.9°F2.7°C 33.8°F1.0°C 86% 5.2 mph N8.4 kmh N 7.8 mph12.6 kmh 29.86 in1011.2 mb 0.00 in0.0 mm 0.00 in0.0 mm 0.06 in1.5 mm
06:15 AM 36.9°F2.7°C 33.8°F1.0°C 86% 4.9 mph NNE7.9 kmh NNE 7.8 mph12.6 kmh 29.86 in1011.2 mb 0.00 in0.0 mm 0.00 in0.0 mm 0.06 in1.5 mm
06:20 AM 37.0°F2.8°C 33.8°F1.0°C 86% 4.1 mph NNE6.6 kmh NNE 6.5 mph10.5 kmh 29.86 in1011.2 mb 0.00 in0.0 mm 0.00 in0.0 mm 0.06 in1.5 mm
06:25 AM 37.0°F2.8°C 33.8°F1.0°C 86% 3.7 mph N6.0 kmh N 6.5 mph10.5 kmh 29.86 in1011.2 mb 0.00 in0.0 mm 0.00 in0.0 mm 0.06 in1.5 mm
06:30 AM 37.0°F2.8°C 33.8°F1.0°C 86% 3.7 mph NNE6.0 kmh NNE 5.8 mph9.3 kmh 29.86 in1011.2 mb 0.00 in0.0 mm 0.00 in0.0 mm 0.06 in1.5 mm
06:35 AM 37.0°F2.8°C 33.8°F1.0°C 86% 3.5 mph NE5.6 kmh NE 5.8 mph9.3 kmh 29.86 in1011.2 mb 0.00 in0.0 mm 0.00 in0.0 mm 0.06 in1.5 mm
06:40 AM 37.0°F2.8°C 33.8°F1.0°C 86% 3.1 mph NNE5.0 kmh NNE 5.8 mph9.3 kmh 29.86 in1011.2 mb 0.00 in0.0 mm 0.00 in0.0 mm 0.06 in1.5 mm
06:45 AM 37.0°F2.8°C 33.8°F1.0°C 86% 3.0 mph N4.8 kmh N 5.8 mph9.3 kmh 29.86 in1011.2 mb 0.00 in0.0 mm 0.00 in0.0 mm 0.06 in1.5 mm
06:50 AM 37.2°F2.9°C 33.8°F1.0°C 86% 3.3 mph N5.3 kmh N 4.7 mph7.6 kmh 29.86 in1011.2 mb 0.00 in0.0 mm 0.00 in0.0 mm 0.06 in1.5 mm
06:55 AM 37.2°F2.9°C 33.8°F1.0°C 86% 3.1 mph N5.0 kmh N 5.4 mph8.7 kmh 29.86 in1011.2 mb 0.00 in0.0 mm 0.00 in0.0 mm 0.06 in1.5 mm
07:00 AM 37.4°F3.0°C 33.8°F1.0°C 86% 2.4 mph NNE3.9 kmh NNE 5.4 mph8.7 kmh 29.89 in1012.2 mb 0.00 in0.0 mm 0.00 in0.0 mm 0.06 in1.5 mm
07:05 AM 37.4°F3.0°C 33.8°F1.0°C 86% 2.0 mph N3.2 kmh N 4.9 mph7.9 kmh 29.89 in1012.2 mb 0.00 in0.0 mm 0.00 in0.0 mm 0.06 in1.5 mm
07:10 AM 37.4°F3.0°C 33.8°F1.0°C 86% 2.4 mph N3.9 kmh N 5.4 mph8.7 kmh 29.89 in1012.2 mb 0.00 in0.0 mm 0.00 in0.0 mm 0.06 in1.5 mm
07:15 AM 37.6°F3.1°C 33.8°F1.0°C 86% 3.1 mph N5.0 kmh N 5.4 mph8.7 kmh 29.89 in1012.2 mb 0.00 in0.0 mm 0.00 in0.0 mm 0.06 in1.5 mm
07:20 AM 37.6°F3.1°C 33.8°F1.0°C 86% 3.1 mph NNE5.0 kmh NNE 5.4 mph8.7 kmh 29.89 in1012.2 mb 0.00 in0.0 mm 0.00 in0.0 mm 0.06 in1.5 mm
07:25 AM 37.6°F3.1°C 33.8°F1.0°C 86% 3.5 mph NE5.6 kmh NE 6.0 mph9.7 kmh 29.89 in1012.2 mb 0.00 in0.0 mm 0.00 in0.0 mm 0.06 in1.5 mm
07:30 AM 37.6°F3.1°C 33.8°F1.0°C 86% 5.1 mph NNE8.2 kmh NNE 7.8 mph12.6 kmh 29.89 in1012.2 mb 0.00 in0.0 mm 0.00 in0.0 mm 0.06 in1.5 mm
07:35 AM 37.4°F3.0°C 33.8°F1.0°C 85% 5.8 mph NNE9.3 kmh NNE 7.8 mph12.6 kmh 29.89 in1012.2 mb 0.00 in0.0 mm 0.00 in0.0 mm 0.06 in1.5 mm
07:40 AM 37.4°F3.0°C 33.8°F1.0°C 85% 4.8 mph NE7.7 kmh NE 7.8 mph12.6 kmh 29.89 in1012.2 mb 0.00 in0.0 mm 0.00 in0.0 mm 0.06 in1.5 mm
07:45 AM 37.6°F3.1°C 33.8°F1.0°C 85% 4.2 mph NNE6.8 kmh NNE 6.3 mph10.1 kmh 29.89 in1012.2 mb 0.00 in0.0 mm 0.00 in0.0 mm 0.06 in1.5 mm
07:50 AM 37.8°F3.2°C 33.8°F1.0°C 86% 3.9 mph NNE6.3 kmh NNE 6.3 mph10.1 kmh 29.89 in1012.2 mb 0.00 in0.0 mm 0.00 in0.0 mm 0.06 in1.5 mm
07:55 AM 37.8°F3.2°C 33.8°F1.0°C 85% 3.3 mph NE5.3 kmh NE 4.9 mph7.9 kmh 29.89 in1012.2 mb 0.00 in0.0 mm 0.00 in0.0 mm 0.06 in1.5 mm
08:00 AM 37.9°F3.3°C 33.8°F1.0°C 85% 3.2 mph NE5.1 kmh NE 8.1 mph13.0 kmh 29.89 in1012.2 mb 0.00 in0.0 mm 0.00 in0.0 mm 0.06 in1.5 mm
08:05 AM 37.9°F3.3°C 33.8°F1.0°C 85% 4.5 mph N7.2 kmh N 8.1 mph13.0 kmh 29.89 in1012.2 mb 0.00 in0.0 mm 0.00 in0.0 mm 0.06 in1.5 mm
08:10 AM 38.1°F3.4°C 33.8°F1.0°C 85% 4.8 mph NNE7.7 kmh NNE 7.8 mph12.6 kmh 29.89 in1012.2 mb 0.00 in0.0 mm 0.00 in0.0 mm 0.06 in1.5 mm
08:15 AM 38.1°F3.4°C 33.8°F1.0°C 85% 4.5 mph NNE7.2 kmh NNE 7.2 mph11.6 kmh 29.92 in1013.2 mb 0.00 in0.0 mm 0.00 in0.0 mm 0.06 in1.5 mm
08:20 AM 38.1°F3.4°C 33.8°F1.0°C 85% 4.6 mph NE7.4 kmh NE 7.2 mph11.6 kmh 29.92 in1013.2 mb 0.00 in0.0 mm 0.00 in0.0 mm 0.06 in1.5 mm
08:25 AM 38.5°F3.6°C 33.8°F1.0°C 85% 4.2 mph NE6.8 kmh NE 5.8 mph9.3 kmh 29.92 in1013.2 mb 0.00 in0.0 mm 0.00 in0.0 mm 0.06 in1.5 mm
08:30 AM 38.5°F3.6°C 33.8°F1.0°C 85% 4.9 mph NNE7.9 kmh NNE 9.8 mph15.8 kmh 29.92 in1013.2 mb 0.00 in0.0 mm 0.00 in0.0 mm 0.06 in1.5 mm
08:35 AM 38.1°F3.4°C 33.8°F1.0°C 85% 7.0 mph NE11.3 kmh NE 13.0 mph20.9 kmh 29.92 in1013.2 mb 0.00 in0.0 mm 0.00 in0.0 mm 0.06 in1.5 mm
08:40 AM 37.9°F3.3°C 33.8°F1.0°C 85% 8.8 mph NE14.2 kmh NE 13.0 mph20.9 kmh 29.92 in1013.2 mb 0.00 in0.0 mm 0.00 in0.0 mm 0.06 in1.5 mm
08:45 AM 37.9°F3.3°C 33.8°F1.0°C 85% 8.5 mph NE13.7 kmh NE 12.5 mph20.1 kmh 29.92 in1013.2 mb 0.00 in0.0 mm 0.00 in0.0 mm 0.06 in1.5 mm
08:50 AM 37.9°F3.3°C 33.8°F1.0°C 85% 6.9 mph NE11.1 kmh NE 10.7 mph17.2 kmh 29.92 in1013.2 mb 0.00 in0.0 mm 0.00 in0.0 mm 0.06 in1.5 mm
08:55 AM 38.1°F3.4°C 33.8°F1.0°C 85% 5.6 mph NE9.0 kmh NE 8.5 mph13.7 kmh 29.92 in1013.2 mb 0.00 in0.0 mm 0.00 in0.0 mm 0.06 in1.5 mm
09:00 AM 37.9°F3.3°C 33.8°F1.0°C 85% 6.2 mph NE10.0 kmh NE 10.5 mph16.9 kmh 29.92 in1013.2 mb 0.00 in0.0 mm 0.00 in0.0 mm 0.06 in1.5 mm
09:05 AM 38.1°F3.4°C 33.8°F1.0°C 85% 6.8 mph ENE10.9 kmh ENE 10.5 mph16.9 kmh 29.92 in1013.2 mb 0.00 in0.0 mm 0.00 in0.0 mm 0.06 in1.5 mm
09:10 AM 37.8°F3.2°C 33.8°F1.0°C 85% 6.7 mph NE10.8 kmh NE 10.5 mph16.9 kmh 29.92 in1013.2 mb 0.00 in0.0 mm 0.00 in0.0 mm 0.06 in1.5 mm
09:15 AM 38.1°F3.4°C 33.8°F1.0°C 85% 7.1 mph NE11.4 kmh NE 10.3 mph16.6 kmh 29.95 in1014.2 mb 0.00 in0.0 mm 0.00 in0.0 mm 0.06 in1.5 mm
09:20 AM 38.7°F3.7°C 35.6°F2.0°C 85% 5.8 mph NE9.3 kmh NE 10.3 mph16.6 kmh 29.95 in1014.2 mb 0.00 in0.0 mm 0.00 in0.0 mm 0.06 in1.5 mm
09:25 AM 39.2°F4.0°C 35.6°F2.0°C 85% 4.8 mph NE7.7 kmh NE 9.6 mph15.4 kmh 29.95 in1014.2 mb 0.00 in0.0 mm 0.00 in0.0 mm 0.06 in1.5 mm
09:30 AM 39.9°F4.4°C 35.6°F2.0°C 85% 5.2 mph NNE8.4 kmh NNE 9.6 mph15.4 kmh 29.95 in1014.2 mb 0.00 in0.0 mm 0.00 in0.0 mm 0.06 in1.5 mm
09:35 AM 39.7°F4.3°C 35.6°F2.0°C 85% 5.6 mph NNE9.0 kmh NNE 8.5 mph13.7 kmh 29.95 in1014.2 mb 0.00 in0.0 mm 0.00 in0.0 mm 0.06 in1.5 mm
09:40 AM 40.1°F4.5°C 35.6°F2.0°C 85% 6.2 mph NE10.0 kmh NE 8.5 mph13.7 kmh 29.95 in1014.2 mb 0.00 in0.0 mm 0.00 in0.0 mm 0.06 in1.5 mm
09:45 AM 40.5°F4.7°C 37.4°F3.0°C 85% 6.1 mph NE9.8 kmh NE 8.5 mph13.7 kmh 29.95 in1014.2 mb 0.00 in0.0 mm 0.00 in0.0 mm 0.06 in1.5 mm